createdAt,value
2022-08-24T00:01:00.304Z,1.56
2022-08-24T00:02:03.209Z,1.92
2022-08-24T00:03:06.111Z,1.38
2022-08-24T00:04:08.826Z,1.39
2022-08-24T00:05:14.880Z,1.53
2022-08-24T00:06:17.440Z,1.51
2022-08-24T00:07:27.669Z,1.68
2022-08-24T00:08:24.316Z,1.47
2022-08-24T00:09:26.998Z,1.54
2022-08-24T00:10:29.652Z,1.68
2022-08-24T00:11:32.422Z,1.63
2022-08-24T00:12:35.202Z,1.62
2022-08-24T00:13:39.490Z,1.82
2022-08-24T00:14:42.278Z,1.67
2022-08-24T00:15:45.050Z,1.78
2022-08-24T00:16:47.928Z,1.70
2022-08-24T00:17:50.713Z,1.59
2022-08-24T00:18:53.368Z,1.68
2022-08-24T00:19:56.038Z,1.41
2022-08-24T00:20:59.120Z,1.85
2022-08-24T00:22:01.887Z,1.61
2022-08-24T00:23:04.557Z,2.01
2022-08-24T00:24:07.329Z,1.80
2022-08-24T00:25:10.101Z,1.78
2022-08-24T00:26:12.876Z,1.50
2022-08-24T00:27:15.556Z,1.51
2022-08-24T00:28:18.213Z,1.55
2022-08-24T00:29:20.990Z,1.51
2022-08-24T00:30:23.761Z,1.81
2022-08-24T00:31:26.549Z,1.42
2022-08-24T00:32:29.303Z,1.75
2022-08-24T00:33:32.078Z,1.80
2022-08-24T00:34:34.950Z,1.74
2022-08-24T00:35:37.621Z,1.88
2022-08-24T00:36:40.299Z,1.92
2022-08-24T00:37:43.064Z,1.90
2022-08-24T00:38:45.834Z,1.70
2022-08-24T00:39:48.731Z,1.35
2022-08-24T00:40:51.378Z,1.59
2022-08-24T00:41:54.055Z,1.43
2022-08-24T00:42:57.330Z,1.53
2022-08-24T00:44:00.110Z,1.25
2022-08-24T00:45:02.877Z,1.47
2022-08-24T00:46:05.715Z,1.74
2022-08-24T00:47:08.424Z,1.75
2022-08-24T00:48:11.192Z,1.66
2022-08-24T00:49:13.966Z,1.84
2022-08-24T00:50:16.635Z,1.89
2022-08-24T00:51:19.409Z,1.82
2022-08-24T00:52:22.101Z,1.42
2022-08-24T00:53:25.981Z,1.55
2022-08-24T00:54:28.748Z,1.32
2022-08-24T00:55:31.522Z,1.47
2022-08-24T00:56:34.499Z,1.52
2022-08-24T00:57:37.276Z,1.70
2022-08-24T00:58:40.246Z,1.68
2022-08-24T00:59:43.123Z,1.63
2022-08-24T01:00:46.281Z,1.72
2022-08-24T01:01:50.366Z,1.59
2022-08-24T01:02:53.286Z,1.65
2022-08-24T01:03:57.152Z,1.68
2022-08-24T01:04:59.948Z,1.58
2022-08-24T01:06:02.618Z,1.73
2022-08-24T01:07:05.392Z,1.58
2022-08-24T01:08:08.164Z,1.57
2022-08-24T01:09:10.833Z,1.52
2022-08-24T01:10:14.123Z,1.44
2022-08-24T01:11:16.992Z,1.58
2022-08-24T01:12:19.763Z,1.52
2022-08-24T01:13:22.538Z,1.55
2022-08-24T01:14:25.311Z,1.47
2022-08-24T01:15:28.083Z,1.70
2022-08-24T01:16:30.817Z,1.62
2022-08-24T01:17:37.846Z,1.42
2022-08-24T01:18:37.837Z,1.77
2022-08-24T01:19:40.505Z,1.69
2022-08-24T01:20:43.174Z,1.46
2022-08-24T01:21:45.946Z,1.66
2022-08-24T01:22:48.716Z,1.53
2022-08-24T01:23:51.385Z,1.88
2022-08-24T01:24:54.262Z,2.35
2022-08-24T01:25:56.829Z,1.86
2022-08-24T01:27:00.629Z,1.66
2022-08-24T01:28:04.456Z,1.47
2022-08-24T01:29:07.704Z,1.69
2022-08-24T01:30:10.576Z,1.72
2022-08-24T01:31:14.202Z,1.72
2022-08-24T01:32:17.043Z,1.85
2022-08-24T01:33:19.817Z,1.72
2022-08-24T01:34:22.591Z,1.78
2022-08-24T01:35:25.366Z,1.85
2022-08-24T01:36:28.632Z,1.35
2022-08-24T01:37:31.622Z,1.32
2022-08-24T01:38:34.495Z,1.78
2022-08-24T01:39:37.174Z,1.78
2022-08-24T01:40:40.066Z,1.48
2022-08-24T01:41:42.920Z,1.69
2022-08-24T01:42:45.585Z,1.59
2022-08-24T01:43:48.363Z,1.80
2022-08-24T01:44:51.030Z,1.85
2022-08-24T01:45:53.806Z,1.88
2022-08-24T01:46:56.618Z,1.99
2022-08-24T01:47:59.631Z,1.95
2022-08-24T01:49:02.431Z,2.15
2022-08-24T01:50:05.100Z,2.13
2022-08-24T01:51:07.763Z,2.22
2022-08-24T01:52:10.750Z,1.92
2022-08-24T01:53:13.510Z,1.62
2022-08-24T01:54:16.291Z,1.74
2022-08-24T01:55:19.229Z,1.42
2022-08-24T01:56:23.283Z,1.73
2022-08-24T01:57:26.240Z,1.95
2022-08-24T01:58:29.933Z,1.65
2022-08-24T01:59:32.714Z,1.63
2022-08-24T02:00:35.376Z,2.03
2022-08-24T02:01:38.129Z,2.04
2022-08-24T02:02:40.908Z,2.28
2022-08-24T02:03:43.689Z,2.34
2022-08-24T02:04:46.575Z,2.20
2022-08-24T02:05:49.236Z,2.35
2022-08-24T02:06:51.919Z,2.08
2022-08-24T02:07:54.678Z,1.94
2022-08-24T02:08:57.450Z,2.21
2022-08-24T02:10:00.227Z,2.25
2022-08-24T02:11:02.893Z,2.18
2022-08-24T02:12:05.771Z,2.39
2022-08-24T02:13:08.543Z,1.85
2022-08-24T02:14:11.211Z,1.90
2022-08-24T02:15:16.648Z,2.09
2022-08-24T02:16:19.740Z,1.79
2022-08-24T02:17:22.699Z,2.10
2022-08-24T02:18:25.578Z,2.37
2022-08-24T02:19:28.566Z,2.30
2022-08-24T02:20:31.426Z,2.08
2022-08-24T02:21:34.405Z,2.27
2022-08-24T02:22:37.173Z,2.24
2022-08-24T02:23:39.949Z,2.43
2022-08-24T02:24:42.722Z,2.95
2022-08-24T02:25:45.489Z,2.31
2022-08-24T02:26:48.269Z,2.42
2022-08-24T02:27:51.114Z,2.35
2022-08-24T02:28:54.019Z,2.22
2022-08-24T02:29:57.811Z,2.11
2022-08-24T02:31:00.670Z,2.08
2022-08-24T02:32:03.357Z,2.06
2022-08-24T02:33:06.345Z,2.37
2022-08-24T02:34:09.003Z,2.05
2022-08-24T02:35:11.776Z,2.25
2022-08-24T02:36:26.263Z,2.00
2022-08-24T02:37:19.273Z,2.35
2022-08-24T02:38:22.252Z,2.08
2022-08-24T02:39:25.021Z,1.76
2022-08-24T02:40:27.871Z,2.32
2022-08-24T02:41:30.561Z,1.63
2022-08-24T02:42:33.331Z,1.99
2022-08-24T02:43:36.206Z,1.79
2022-08-24T02:44:40.508Z,2.01
2022-08-24T02:45:44.517Z,2.60
2022-08-24T02:46:47.553Z,2.23
2022-08-24T02:47:50.071Z,2.03
2022-08-24T02:48:56.457Z,1.88
2022-08-24T02:49:57.046Z,2.36
2022-08-24T02:50:59.704Z,2.27
2022-08-24T02:52:02.477Z,2.56
2022-08-24T02:53:05.401Z,3.88
2022-08-24T02:54:07.927Z,2.45
2022-08-24T02:55:10.692Z,2.30
2022-08-24T02:56:13.367Z,2.08
2022-08-24T02:57:16.236Z,1.72
2022-08-24T02:58:19.023Z,1.71
2022-08-24T02:59:22.302Z,1.72
2022-08-24T03:00:25.177Z,1.82
2022-08-24T03:01:30.496Z,1.74
2022-08-24T03:02:32.213Z,2.12
2022-08-24T03:03:34.916Z,1.84
2022-08-24T03:04:37.686Z,2.15
2022-08-24T03:05:40.565Z,1.95
2022-08-24T03:06:43.336Z,1.79
2022-08-24T03:07:46.216Z,1.75
2022-08-24T03:08:56.170Z,1.64
2022-08-24T03:09:53.187Z,1.69
2022-08-24T03:10:55.961Z,2.16
2022-08-24T03:11:58.628Z,1.89
2022-08-24T03:13:01.726Z,1.94
2022-08-24T03:14:04.589Z,2.11
2022-08-24T03:15:07.262Z,2.22
2022-08-24T03:16:09.987Z,2.02
2022-08-24T03:17:12.901Z,1.88
2022-08-24T03:18:15.672Z,1.94
2022-08-24T03:19:18.552Z,2.01
2022-08-24T03:20:21.329Z,2.02
2022-08-24T03:21:24.097Z,2.15
2022-08-24T03:22:26.865Z,1.91
2022-08-24T03:23:29.737Z,2.30
2022-08-24T03:24:34.153Z,2.06
2022-08-24T03:25:37.330Z,2.42
2022-08-24T03:26:40.105Z,1.88
2022-08-24T03:27:44.512Z,1.80
2022-08-24T03:28:47.185Z,1.98
2022-08-24T03:29:51.607Z,1.70
2022-08-24T03:30:54.212Z,1.89
2022-08-24T03:31:57.035Z,1.77
2022-08-24T03:33:01.250Z,1.72
2022-08-24T03:34:03.910Z,1.50
2022-08-24T03:35:06.684Z,1.75
2022-08-24T03:36:13.650Z,1.99
2022-08-24T03:37:13.666Z,1.91
2022-08-24T03:38:16.441Z,1.57
2022-08-24T03:39:19.222Z,1.91
2022-08-24T03:40:23.194Z,1.75
2022-08-24T03:41:26.389Z,1.87
2022-08-24T03:42:30.183Z,1.90
2022-08-24T03:43:32.854Z,2.01
2022-08-24T03:44:35.732Z,2.05
2022-08-24T03:45:38.448Z,2.16
2022-08-24T03:46:41.179Z,1.92
2022-08-24T03:47:43.849Z,1.92
2022-08-24T03:48:47.127Z,1.88
2022-08-24T03:49:49.904Z,2.09
2022-08-24T03:50:52.572Z,2.81
2022-08-24T03:51:55.447Z,2.39
2022-08-24T03:52:58.168Z,2.22
2022-08-24T03:54:00.989Z,2.27
2022-08-24T03:55:03.969Z,2.16
2022-08-24T03:56:07.136Z,2.30
2022-08-24T03:57:10.436Z,1.80
2022-08-24T03:58:13.317Z,2.05
2022-08-24T03:59:19.821Z,2.36
2022-08-24T04:00:20.387Z,2.41
2022-08-24T04:01:23.181Z,2.38
2022-08-24T04:02:30.042Z,2.22
2022-08-24T04:03:32.614Z,2.30
2022-08-24T04:04:34.648Z,2.18
2022-08-24T04:05:37.320Z,2.28
2022-08-24T04:06:41.728Z,2.21
2022-08-24T04:07:44.402Z,2.26
2022-08-24T04:08:47.083Z,2.08
2022-08-24T04:09:49.737Z,2.26
2022-08-24T04:10:52.411Z,2.05
2022-08-24T04:11:55.078Z,2.11
2022-08-24T04:12:58.272Z,2.07
2022-08-24T04:14:02.571Z,2.25
2022-08-24T04:15:05.242Z,2.29
2022-08-24T04:16:08.295Z,2.42
2022-08-24T04:17:11.404Z,2.31
2022-08-24T04:18:14.066Z,2.05
2022-08-24T04:19:16.938Z,2.64
2022-08-24T04:20:19.715Z,2.55
2022-08-24T04:21:22.691Z,2.15
2022-08-24T04:22:25.463Z,1.99
2022-08-24T04:23:39.338Z,1.93
2022-08-24T04:24:32.954Z,2.07
2022-08-24T04:25:35.932Z,2.15
2022-08-24T04:26:44.792Z,2.73
2022-08-24T04:27:43.119Z,1.99
2022-08-24T04:28:45.889Z,2.02
2022-08-24T04:29:48.658Z,2.17
2022-08-24T04:30:51.430Z,2.71
2022-08-24T04:31:54.262Z,2.68
2022-08-24T04:32:57.077Z,3.41
2022-08-24T04:33:59.947Z,2.15
2022-08-24T04:35:02.721Z,2.38
2022-08-24T04:36:05.396Z,2.16
2022-08-24T04:37:11.325Z,1.82
2022-08-24T04:38:12.575Z,1.95
2022-08-24T04:39:15.346Z,2.05
2022-08-24T04:40:19.419Z,2.14
2022-08-24T04:41:27.452Z,2.11
2022-08-24T04:42:26.734Z,1.95
2022-08-24T04:43:30.019Z,2.10
2022-08-24T04:44:34.135Z,2.04
2022-08-24T04:45:36.960Z,2.08
2022-08-24T04:46:39.775Z,2.22
2022-08-24T04:47:42.337Z,2.22
2022-08-24T04:48:45.211Z,2.06
2022-08-24T04:49:48.195Z,2.17
2022-08-24T04:50:50.958Z,2.12
2022-08-24T04:51:53.731Z,2.23
2022-08-24T04:52:56.518Z,2.13
2022-08-24T04:53:59.400Z,1.98
2022-08-24T04:55:02.048Z,1.94
2022-08-24T04:56:04.717Z,2.00
2022-08-24T04:57:07.400Z,2.32
2022-08-24T04:58:10.055Z,2.27
2022-08-24T04:59:12.732Z,2.22
2022-08-24T05:00:15.505Z,2.17
2022-08-24T05:01:18.281Z,2.05
2022-08-24T05:02:21.191Z,2.11
2022-08-24T05:03:23.821Z,1.98
2022-08-24T05:04:26.590Z,2.08
2022-08-24T05:05:29.260Z,2.36
2022-08-24T05:06:32.034Z,2.02
2022-08-24T05:07:34.800Z,1.88
2022-08-24T05:08:37.576Z,1.80
2022-08-24T05:09:40.461Z,2.11
2022-08-24T05:10:43.635Z,1.86
2022-08-24T05:11:50.053Z,2.25
2022-08-24T05:12:50.613Z,2.18
2022-08-24T05:13:53.299Z,2.32
2022-08-24T05:14:56.264Z,2.25
2022-08-24T05:15:59.090Z,2.22
2022-08-24T05:17:03.015Z,1.95
2022-08-24T05:18:06.007Z,2.03
2022-08-24T05:19:08.777Z,1.98
2022-08-24T05:20:11.363Z,1.88
2022-08-24T05:21:14.015Z,2.33
2022-08-24T05:22:16.794Z,2.13
2022-08-24T05:23:19.460Z,2.08
2022-08-24T05:24:22.127Z,2.01
2022-08-24T05:25:24.834Z,2.14
2022-08-24T05:26:30.542Z,2.15
2022-08-24T05:27:33.209Z,2.17
2022-08-24T05:28:35.979Z,2.18
2022-08-24T05:29:38.674Z,1.93
2022-08-24T05:30:42.908Z,2.33
2022-08-24T05:31:45.741Z,1.89
2022-08-24T05:32:48.508Z,2.16
2022-08-24T05:33:51.175Z,2.29
2022-08-24T05:34:53.950Z,2.20
2022-08-24T05:35:56.627Z,2.15
2022-08-24T05:36:59.499Z,1.94
2022-08-24T05:38:02.691Z,2.25
2022-08-24T05:39:10.537Z,2.08
2022-08-24T05:40:10.234Z,2.04
2022-08-24T05:41:12.941Z,1.99
2022-08-24T05:42:15.914Z,2.05
2022-08-24T05:43:18.791Z,1.96
2022-08-24T05:44:21.565Z,2.14
2022-08-24T05:45:24.338Z,1.85
2022-08-24T05:46:27.242Z,1.81
2022-08-24T05:47:29.880Z,1.87
2022-08-24T05:48:32.958Z,2.09
2022-08-24T05:49:40.778Z,2.11
2022-08-24T05:50:40.140Z,2.07
2022-08-24T05:51:42.950Z,1.90
2022-08-24T05:52:46.007Z,2.02
2022-08-24T05:53:48.662Z,1.89
2022-08-24T05:54:51.227Z,1.93
2022-08-24T05:55:53.898Z,1.86
2022-08-24T05:56:56.981Z,2.00
2022-08-24T05:57:59.973Z,1.96
2022-08-24T05:59:02.635Z,2.28
2022-08-24T06:00:05.418Z,1.94
2022-08-24T06:01:08.171Z,1.78
2022-08-24T06:02:11.140Z,2.00
2022-08-24T06:03:14.795Z,1.92
2022-08-24T06:04:17.615Z,2.06
2022-08-24T06:05:20.280Z,2.14
2022-08-24T06:06:23.058Z,1.78
2022-08-24T06:07:25.936Z,1.94
2022-08-24T06:08:28.905Z,2.05
2022-08-24T06:09:31.985Z,1.98
2022-08-24T06:10:36.591Z,2.19
2022-08-24T06:11:38.966Z,2.12
2022-08-24T06:12:42.037Z,2.18
2022-08-24T06:13:44.916Z,1.84
2022-08-24T06:14:49.228Z,1.90
2022-08-24T06:16:17.833Z,1.98
2022-08-24T06:16:56.591Z,1.90
2022-08-24T06:17:59.538Z,1.99
2022-08-24T06:19:02.368Z,1.82
2022-08-24T06:20:04.933Z,2.26
2022-08-24T06:21:07.600Z,2.12
2022-08-24T06:22:10.382Z,1.65
2022-08-24T06:23:13.867Z,2.00
2022-08-24T06:24:17.561Z,2.17
2022-08-24T06:25:20.746Z,2.14
2022-08-24T06:26:23.623Z,1.91
2022-08-24T06:27:26.794Z,1.85
2022-08-24T06:28:30.075Z,1.88
2022-08-24T06:29:33.056Z,2.07
2022-08-24T06:30:35.830Z,1.88
2022-08-24T06:31:39.755Z,2.09
2022-08-24T06:32:43.728Z,2.23
2022-08-24T06:33:47.116Z,2.24
2022-08-24T06:34:50.494Z,2.15
2022-08-24T06:35:53.684Z,2.35
2022-08-24T06:36:56.463Z,2.60
2022-08-24T06:37:59.640Z,2.10
2022-08-24T06:39:02.921Z,2.04
2022-08-24T06:40:06.798Z,2.14
2022-08-24T06:41:09.490Z,2.62
2022-08-24T06:42:12.265Z,4.90
2022-08-24T06:43:14.930Z,10.25
2022-08-24T06:44:17.804Z,5.85
2022-08-24T06:45:20.689Z,4.86
2022-08-24T06:46:26.445Z,3.09
2022-08-24T06:47:28.266Z,2.55
2022-08-24T06:48:31.463Z,2.25
2022-08-24T06:49:34.326Z,1.83
2022-08-24T06:50:37.410Z,2.51
2022-08-24T06:51:40.178Z,2.34
2022-08-24T06:52:43.161Z,2.25
2022-08-24T06:53:47.155Z,1.84
2022-08-24T06:54:50.345Z,1.99
2022-08-24T06:55:53.109Z,2.38
2022-08-24T06:56:55.997Z,2.32
2022-08-24T06:57:58.769Z,2.26
2022-08-24T06:59:01.428Z,2.37
2022-08-24T07:00:04.405Z,2.11
2022-08-24T07:01:07.073Z,2.45
2022-08-24T07:02:09.960Z,1.90
2022-08-24T07:03:12.643Z,1.76
2022-08-24T07:04:15.499Z,1.94
2022-08-24T07:05:18.377Z,1.85
2022-08-24T07:06:21.663Z,1.96
2022-08-24T07:07:24.426Z,2.08
2022-08-24T07:08:27.525Z,2.26
2022-08-24T07:09:30.590Z,2.19
2022-08-24T07:10:33.669Z,2.31
2022-08-24T07:11:36.746Z,1.91
2022-08-24T07:12:40.653Z,1.82
2022-08-24T07:13:43.721Z,1.96
2022-08-24T07:14:46.917Z,2.17
2022-08-24T07:15:49.835Z,2.05
2022-08-24T07:16:52.960Z,2.07
2022-08-24T07:17:55.837Z,2.29
2022-08-24T07:18:58.813Z,2.31
2022-08-24T07:20:02.716Z,2.09
2022-08-24T07:21:05.612Z,2.39
2022-08-24T07:22:08.261Z,2.15
2022-08-24T07:23:10.924Z,1.85
2022-08-24T07:24:13.704Z,2.20
2022-08-24T07:25:16.779Z,2.21
2022-08-24T07:26:21.421Z,2.11
2022-08-24T07:27:24.493Z,2.21
2022-08-24T07:28:27.791Z,1.95
2022-08-24T07:29:59.949Z,2.45
2022-08-24T07:30:37.295Z,2.17
2022-08-24T07:31:40.536Z,1.98
2022-08-24T07:32:43.253Z,2.02
2022-08-24T07:33:45.919Z,2.05
2022-08-24T07:34:48.798Z,1.83
2022-08-24T07:35:51.676Z,2.06
2022-08-24T07:36:56.078Z,2.06
2022-08-24T07:37:58.679Z,2.33
2022-08-24T07:39:01.428Z,2.17
2022-08-24T07:40:04.294Z,2.15
2022-08-24T07:41:36.662Z,1.97
2022-08-24T07:42:15.896Z,2.32
2022-08-24T07:43:15.804Z,2.39
2022-08-24T07:44:18.583Z,2.39
2022-08-24T07:45:21.433Z,2.24
2022-08-24T07:46:24.503Z,2.29
2022-08-24T07:47:38.487Z,2.32
2022-08-24T07:48:31.498Z,2.51
2022-08-24T07:49:39.530Z,2.38
2022-08-24T07:50:39.709Z,2.30
2022-08-24T07:51:44.919Z,2.54
2022-08-24T07:52:46.892Z,2.59
2022-08-24T07:53:53.895Z,2.42
2022-08-24T07:54:54.164Z,2.15
2022-08-24T07:55:56.842Z,2.50
2022-08-24T07:56:59.718Z,2.48
2022-08-24T07:58:02.377Z,2.52
2022-08-24T07:59:07.704Z,2.79
2022-08-24T08:00:09.577Z,2.43
2022-08-24T08:01:12.297Z,2.31
2022-08-24T08:02:15.434Z,2.35
2022-08-24T08:03:18.608Z,2.35
2022-08-24T08:04:21.265Z,2.24
2022-08-24T08:05:24.041Z,2.05
2022-08-24T08:06:26.923Z,2.32
2022-08-24T08:07:29.690Z,1.97
2022-08-24T08:08:32.455Z,2.08
2022-08-24T08:09:36.157Z,2.28
2022-08-24T08:10:39.021Z,2.98
2022-08-24T08:11:42.109Z,2.58
2022-08-24T08:12:44.988Z,2.36
2022-08-24T08:13:48.159Z,2.52
2022-08-24T08:14:51.341Z,2.37
2022-08-24T08:15:57.968Z,2.30
2022-08-24T08:16:58.935Z,2.62
2022-08-24T08:18:01.811Z,2.59
2022-08-24T08:19:11.975Z,2.50
2022-08-24T08:20:09.195Z,2.46
2022-08-24T08:21:14.189Z,2.77
2022-08-24T08:22:16.171Z,2.29
2022-08-24T08:23:19.351Z,2.34
2022-08-24T08:24:22.432Z,2.52
2022-08-24T08:25:27.070Z,2.45
2022-08-24T08:26:30.047Z,2.22
2022-08-24T08:27:33.019Z,2.39
2022-08-24T08:28:36.547Z,2.66
2022-08-24T08:29:39.668Z,2.65
2022-08-24T08:30:42.415Z,2.60
2022-08-24T08:31:45.637Z,2.57
2022-08-24T08:32:48.608Z,2.74
2022-08-24T08:33:51.582Z,2.75
2022-08-24T08:34:55.977Z,3.10
2022-08-24T08:35:58.767Z,2.53
2022-08-24T08:37:01.645Z,2.52
2022-08-24T08:38:04.859Z,2.96
2022-08-24T08:39:07.897Z,2.96
2022-08-24T08:40:10.804Z,2.62
2022-08-24T08:41:13.448Z,2.80
2022-08-24T08:42:16.420Z,3.05
2022-08-24T08:43:19.525Z,2.53
2022-08-24T08:44:22.167Z,2.45
2022-08-24T08:45:24.943Z,2.60
2022-08-24T08:46:27.734Z,2.55
2022-08-24T08:47:30.381Z,2.51
2022-08-24T08:48:33.163Z,2.72
2022-08-24T08:49:35.936Z,3.08
2022-08-24T08:50:38.699Z,3.24
2022-08-24T08:51:41.474Z,3.88
2022-08-24T08:52:44.291Z,4.12
2022-08-24T08:53:46.918Z,4.02
2022-08-24T08:54:49.588Z,4.00
2022-08-24T08:55:53.361Z,3.79
2022-08-24T08:56:59.337Z,4.43
2022-08-24T08:58:00.483Z,3.85
2022-08-24T08:59:03.337Z,4.31
2022-08-24T09:00:07.232Z,4.08
2022-08-24T09:01:10.094Z,4.07
2022-08-24T09:02:12.880Z,3.77
2022-08-24T09:03:15.758Z,3.97
2022-08-24T09:04:21.220Z,3.72
2022-08-24T09:05:22.742Z,3.59
2022-08-24T09:06:25.400Z,4.08
2022-08-24T09:07:28.173Z,3.92
2022-08-24T09:08:30.849Z,3.75
2022-08-24T09:09:35.125Z,3.95
2022-08-24T09:10:37.934Z,4.26
2022-08-24T09:11:40.905Z,4.42
2022-08-24T09:12:43.777Z,4.63
2022-08-24T09:13:46.680Z,4.76
2022-08-24T09:14:49.731Z,4.39
2022-08-24T09:15:55.995Z,3.86
2022-08-24T09:16:56.772Z,5.24
2022-08-24T09:17:59.542Z,5.65
2022-08-24T09:19:02.359Z,4.37
2022-08-24T09:20:05.141Z,4.10
2022-08-24T09:21:07.703Z,4.01
2022-08-24T09:22:10.465Z,3.92
2022-08-24T09:23:13.237Z,4.42
2022-08-24T09:24:16.117Z,4.28
2022-08-24T09:25:18.894Z,4.53
2022-08-24T09:26:23.513Z,4.64
2022-08-24T09:27:26.580Z,4.33
2022-08-24T09:28:29.456Z,4.48
2022-08-24T09:29:32.546Z,3.90
2022-08-24T09:30:35.890Z,4.05
2022-08-24T09:31:38.952Z,4.15
2022-08-24T09:32:43.212Z,4.31
2022-08-24T09:33:46.184Z,4.15
2022-08-24T09:34:49.160Z,4.20
2022-08-24T09:35:52.058Z,4.08
2022-08-24T09:36:55.119Z,4.71
2022-08-24T09:37:58.005Z,4.01
2022-08-24T09:39:06.396Z,4.33
2022-08-24T09:40:09.109Z,4.45
2022-08-24T09:41:11.833Z,4.44
2022-08-24T09:42:14.606Z,4.25
2022-08-24T09:43:17.383Z,3.99
2022-08-24T09:44:20.363Z,3.98
2022-08-24T09:45:23.332Z,3.94
2022-08-24T09:46:26.383Z,4.08
2022-08-24T09:47:29.496Z,4.30
2022-08-24T09:48:32.472Z,4.33
2022-08-24T09:49:35.453Z,4.85
2022-08-24T09:50:38.420Z,4.46
2022-08-24T09:51:41.606Z,4.53
2022-08-24T09:52:44.685Z,4.48
2022-08-24T09:53:47.665Z,4.89
2022-08-24T09:54:50.538Z,4.58
2022-08-24T09:55:53.517Z,4.77
2022-08-24T09:57:09.401Z,4.79
2022-08-24T09:58:01.748Z,4.66
2022-08-24T09:59:04.605Z,5.22
2022-08-24T10:00:07.367Z,5.16
2022-08-24T10:01:10.290Z,4.69
2022-08-24T10:02:13.064Z,4.88
2022-08-24T10:03:15.787Z,4.52
2022-08-24T10:04:20.128Z,4.52
2022-08-24T10:05:22.874Z,4.12
2022-08-24T10:06:25.950Z,4.80
2022-08-24T10:07:28.827Z,4.71
2022-08-24T10:08:31.592Z,5.44
2022-08-24T10:09:34.796Z,5.22
2022-08-24T10:10:37.752Z,4.78
2022-08-24T10:11:40.727Z,4.73
2022-08-24T10:12:44.441Z,4.59
2022-08-24T10:13:47.365Z,4.79
2022-08-24T10:14:50.273Z,4.66
2022-08-24T10:15:53.460Z,4.71
2022-08-24T10:16:56.476Z,4.88
2022-08-24T10:17:59.549Z,4.29
2022-08-24T10:19:02.807Z,4.38
2022-08-24T10:20:05.710Z,4.91
2022-08-24T10:21:08.974Z,4.67
2022-08-24T10:22:11.625Z,4.53
2022-08-24T10:23:14.502Z,4.20
2022-08-24T10:24:17.176Z,4.32
2022-08-24T10:25:20.045Z,4.92
2022-08-24T10:26:22.915Z,5.25
2022-08-24T10:27:25.692Z,5.17
2022-08-24T10:28:28.462Z,5.29
2022-08-24T10:29:31.445Z,4.52
2022-08-24T10:30:34.313Z,4.35
2022-08-24T10:31:37.175Z,3.93
2022-08-24T10:32:41.198Z,4.28
2022-08-24T10:33:44.169Z,4.04
2022-08-24T10:34:46.840Z,4.15
2022-08-24T10:35:49.613Z,3.24
2022-08-24T10:36:52.590Z,2.65
2022-08-24T10:37:55.561Z,2.88
2022-08-24T10:38:59.460Z,2.96
2022-08-24T10:40:05.018Z,2.66
2022-08-24T10:41:07.468Z,2.71
2022-08-24T10:42:10.765Z,2.71
2022-08-24T10:43:13.623Z,2.70
2022-08-24T10:44:16.391Z,2.60
2022-08-24T10:45:19.166Z,2.41
2022-08-24T10:46:22.246Z,1.78
2022-08-24T10:47:25.123Z,1.99
2022-08-24T10:48:27.898Z,2.27
2022-08-24T10:49:30.774Z,1.77
2022-08-24T10:50:33.848Z,1.88
2022-08-24T10:51:36.726Z,1.61
2022-08-24T10:52:39.597Z,1.66
2022-08-24T10:53:43.598Z,1.43
2022-08-24T10:54:46.262Z,1.65
2022-08-24T10:55:49.040Z,1.84
2022-08-24T10:56:52.051Z,1.43
2022-08-24T10:57:54.889Z,1.21
2022-08-24T10:58:57.564Z,1.19
2022-08-24T11:00:00.341Z,1.75
2022-08-24T11:01:03.232Z,1.68
2022-08-24T11:02:12.450Z,1.55
2022-08-24T11:03:10.292Z,1.61
2022-08-24T11:04:13.171Z,1.53
2022-08-24T11:05:15.840Z,1.46
2022-08-24T11:06:18.712Z,1.38
2022-08-24T11:07:21.582Z,1.31
2022-08-24T11:08:24.367Z,1.32
2022-08-24T11:09:27.226Z,1.32
2022-08-24T11:10:30.120Z,1.35
2022-08-24T11:11:32.977Z,1.28
2022-08-24T11:12:35.648Z,1.30
2022-08-24T11:13:38.421Z,1.28
2022-08-24T11:14:41.198Z,1.24
2022-08-24T11:15:44.067Z,1.29
2022-08-24T11:16:46.941Z,1.38
2022-08-24T11:17:49.628Z,1.36
2022-08-24T11:18:52.287Z,0.98
2022-08-24T11:19:54.958Z,1.29
2022-08-24T11:20:57.729Z,1.38
2022-08-24T11:22:00.494Z,1.37
2022-08-24T11:23:03.474Z,1.41
2022-08-24T11:24:06.269Z,1.32
2022-08-24T11:25:09.166Z,1.48
2022-08-24T11:26:12.204Z,1.24
2022-08-24T11:27:14.876Z,1.27
2022-08-24T11:28:17.638Z,1.19
2022-08-24T11:29:20.523Z,1.44
2022-08-24T11:30:23.284Z,0.98
2022-08-24T11:31:26.125Z,1.30
2022-08-24T11:32:28.833Z,1.36
2022-08-24T11:33:31.706Z,0.98
2022-08-24T11:34:34.477Z,1.11
2022-08-24T11:35:37.254Z,1.17
2022-08-24T11:36:39.924Z,1.07
2022-08-24T11:37:42.490Z,1.23
2022-08-24T11:38:45.955Z,1.20
2022-08-24T11:39:48.888Z,1.60
2022-08-24T11:40:51.964Z,1.62
2022-08-24T11:41:54.879Z,1.15
2022-08-24T11:43:02.458Z,1.08
2022-08-24T11:44:03.258Z,1.08
2022-08-24T11:45:06.196Z,1.10
2022-08-24T11:46:08.758Z,0.98
2022-08-24T11:47:11.535Z,1.15
2022-08-24T11:48:14.817Z,1.17
2022-08-24T11:49:17.481Z,1.04
2022-08-24T11:50:20.280Z,1.19
2022-08-24T11:51:23.038Z,1.00
2022-08-24T11:52:26.023Z,1.09
2022-08-24T11:53:28.885Z,1.32
2022-08-24T11:54:31.863Z,0.99
2022-08-24T11:55:46.815Z,1.13
2022-08-24T11:56:39.247Z,1.34
2022-08-24T11:57:47.696Z,1.26
2022-08-24T11:58:48.393Z,1.26
2022-08-24T11:59:51.561Z,1.22
2022-08-24T12:00:54.337Z,1.15
2022-08-24T12:01:57.354Z,1.02
2022-08-24T12:03:00.696Z,1.12
2022-08-24T12:04:03.878Z,1.17
2022-08-24T12:05:06.755Z,1.32
2022-08-24T12:06:09.525Z,1.12
2022-08-24T12:07:12.093Z,1.25
2022-08-24T12:08:14.762Z,1.28
2022-08-24T12:09:17.433Z,1.25
2022-08-24T12:10:20.396Z,1.00
2022-08-24T12:11:24.712Z,1.14
2022-08-24T12:12:28.406Z,1.28
2022-08-24T12:13:31.388Z,1.22
2022-08-24T12:14:34.456Z,1.08
2022-08-24T12:15:37.441Z,1.06
2022-08-24T12:16:40.339Z,1.26
2022-08-24T12:17:43.084Z,1.11
2022-08-24T12:18:46.574Z,1.13
2022-08-24T12:19:49.757Z,0.94
2022-08-24T12:20:52.943Z,1.10
2022-08-24T12:21:56.135Z,0.95
2022-08-24T12:22:59.209Z,1.03
2022-08-24T12:24:02.383Z,1.17
2022-08-24T12:25:05.265Z,1.23
2022-08-24T12:26:07.923Z,1.30
2022-08-24T12:27:10.796Z,1.01
2022-08-24T12:28:13.684Z,1.14
2022-08-24T12:29:16.549Z,1.12
2022-08-24T12:30:19.321Z,1.38
2022-08-24T12:31:22.204Z,1.25
2022-08-24T12:32:24.862Z,1.06
2022-08-24T12:33:27.636Z,1.11
2022-08-24T12:34:30.721Z,1.41
2022-08-24T12:35:33.393Z,1.14
2022-08-24T12:36:36.367Z,1.13
2022-08-24T12:37:39.143Z,1.03
2022-08-24T12:38:42.017Z,1.12
2022-08-24T12:39:45.023Z,1.19
2022-08-24T12:40:48.061Z,1.14
2022-08-24T12:41:51.052Z,1.27
2022-08-24T12:42:54.018Z,1.22
2022-08-24T12:43:56.999Z,1.25
2022-08-24T12:45:00.391Z,1.10
2022-08-24T12:46:03.054Z,1.44
2022-08-24T12:47:05.927Z,1.27
2022-08-24T12:48:08.697Z,1.20
2022-08-24T12:49:11.486Z,1.39
2022-08-24T12:50:14.039Z,1.32
2022-08-24T12:51:16.917Z,1.22
2022-08-24T12:52:19.586Z,1.40
2022-08-24T12:53:22.769Z,1.48
2022-08-24T12:54:25.742Z,1.05
2022-08-24T12:55:28.828Z,1.57
2022-08-24T12:56:31.697Z,1.55
2022-08-24T12:57:34.780Z,1.14
2022-08-24T12:58:54.159Z,1.21
2022-08-24T12:59:42.169Z,1.31
2022-08-24T13:00:45.238Z,1.28
2022-08-24T13:01:48.261Z,1.22
2022-08-24T13:02:51.106Z,1.50
2022-08-24T13:03:54.082Z,1.29
2022-08-24T13:04:56.951Z,1.31
2022-08-24T13:06:00.024Z,1.32
2022-08-24T13:07:02.802Z,1.56
2022-08-24T13:08:05.743Z,1.30
2022-08-24T13:09:08.550Z,1.31
2022-08-24T13:10:12.762Z,1.61
2022-08-24T13:11:15.637Z,1.47
2022-08-24T13:12:18.300Z,1.32
2022-08-24T13:13:22.811Z,1.36
2022-08-24T13:14:25.887Z,1.39
2022-08-24T13:15:28.682Z,1.30
2022-08-24T13:16:31.898Z,1.32
2022-08-24T13:17:34.818Z,1.36
2022-08-24T13:18:37.602Z,1.51
2022-08-24T13:19:40.571Z,1.48
2022-08-24T13:20:43.769Z,1.10
2022-08-24T13:21:47.448Z,1.19
2022-08-24T13:22:50.432Z,1.37
2022-08-24T13:23:53.313Z,1.55
2022-08-24T13:24:56.278Z,1.35
2022-08-24T13:25:59.146Z,1.47
2022-08-24T13:27:02.134Z,1.24
2022-08-24T13:28:04.984Z,1.45
2022-08-24T13:29:08.077Z,1.55
2022-08-24T13:30:10.744Z,1.50
2022-08-24T13:31:13.547Z,1.55
2022-08-24T13:32:16.303Z,1.40
2022-08-24T13:33:18.966Z,1.62
2022-08-24T13:34:21.656Z,1.33
2022-08-24T13:35:24.409Z,1.56
2022-08-24T13:36:27.282Z,1.51
2022-08-24T13:37:29.946Z,1.36
2022-08-24T13:38:32.845Z,1.46
2022-08-24T13:39:35.603Z,1.47
2022-08-24T13:40:38.300Z,1.58
2022-08-24T13:41:40.839Z,1.32
2022-08-24T13:42:43.710Z,1.23
2022-08-24T13:43:46.190Z,1.39
2022-08-24T13:44:48.949Z,1.25
2022-08-24T13:45:51.822Z,1.49
2022-08-24T13:46:54.634Z,1.33
2022-08-24T13:47:57.778Z,1.58
2022-08-24T13:49:00.644Z,1.28
2022-08-24T13:50:03.223Z,1.52
2022-08-24T13:51:06.085Z,1.42
2022-08-24T13:52:08.865Z,1.38
2022-08-24T13:53:11.944Z,1.46
2022-08-24T13:54:17.504Z,1.40
2022-08-24T13:55:19.025Z,1.31
2022-08-24T13:56:22.113Z,1.26
2022-08-24T13:57:26.537Z,1.41
2022-08-24T13:58:30.411Z,1.48
2022-08-24T13:59:33.596Z,1.35